Time;durP1;ratioP1;P1;durP2;ratioP2;P2;SDS_P1;SDS_P2;PMS_P1;PMS_P2;Temp;Humidity;BMP_temperature;BMP_pressure;BME280_temperature;BME280_humidity;BME280_pressure;Samples;Min_cycle;Max_cycle;Signal;HPM_P1;HPM_P2
2021/03/09 00:00:29;;;;;;;5.40;4.05;;;6.00;1.00;;;;;;5084822;28;20196;-74
2021/03/09 00:02:56;;;;;;;4.63;3.97;;;6.00;1.00;;;;;;5096591;28;20190;-75
2021/03/09 00:05:25;;;;;;;6.45;4.43;;;5.90;1.00;;;;;;5084582;28;20222;-76
2021/03/09 00:07:52;;;;;;;5.93;4.80;;;5.90;1.00;;;;;;5085729;28;20215;-74
2021/03/09 00:10:20;;;;;;;6.47;3.67;;;5.90;1.00;;;;;;5101785;28;20195;-76
2021/03/09 00:12:47;;;;;;;4.47;3.92;;;5.80;1.00;;;;;;5114886;27;20801;-75
2021/03/09 00:15:14;;;;;;;6.87;5.23;;;5.80;1.00;;;;;;5083640;28;20602;-75
2021/03/09 00:17:42;;;;;;;4.10;3.70;;;5.80;1.00;;;;;;5087146;28;20482;-74
2021/03/09 00:20:10;;;;;;;4.97;4.13;;;5.70;1.00;;;;;;5086809;28;20460;-75
2021/03/09 00:22:38;;;;;;;7.80;5.30;;;5.70;1.00;;;;;;5081941;28;20228;-76
2021/03/09 00:25:07;;;;;;;5.25;4.13;;;5.70;1.00;;;;;;5082941;28;20819;-79
2021/03/09 00:27:35;;;;;;;6.32;4.70;;;5.70;1.00;;;;;;5118850;27;20315;-75
2021/03/09 00:30:03;;;;;;;5.43;4.00;;;5.60;1.00;;;;;;5121691;27;20278;-75
2021/03/09 00:32:30;;;;;;;7.95;5.35;;;5.60;1.00;;;;;;5104594;28;20476;-76
2021/03/09 00:34:58;;;;;;;5.68;5.05;;;5.60;1.00;;;;;;5099291;28;20209;-75
2021/03/09 00:37:25;;;;;;;6.68;4.47;;;5.50;1.00;;;;;;5096387;28;20297;-77
2021/03/09 00:39:54;;;;;;;6.30;5.30;;;5.50;1.00;;;;;;5086372;28;20283;-75
2021/03/09 00:42:21;;;;;;;5.82;4.72;;;5.50;1.00;;;;;;5088034;28;20477;-75
2021/03/09 00:44:48;;;;;;;6.78;4.90;;;5.40;1.00;;;;;;5089762;28;20203;-76
2021/03/09 00:47:16;;;;;;;6.00;4.70;;;5.40;1.00;;;;;;5099345;28;20301;-75
2021/03/09 00:49:43;;;;;;;10.10;5.45;;;5.40;1.00;;;;;;5092778;28;20555;-76
2021/03/09 00:52:10;;;;;;;5.78;4.45;;;5.40;1.00;;;;;;5088885;28;20192;-75
2021/03/09 00:54:38;;;;;;;7.28;5.25;;;5.40;1.00;;;;;;5107219;28;20236;-77
2021/03/09 00:57:07;;;;;;;10.35;5.57;;;5.30;1.00;;;;;;5080548;28;20597;-76
2021/03/09 00:59:34;;;;;;;9.90;5.60;;;5.30;1.00;;;;;;5097984;28;20193;-75
2021/03/09 01:02:02;;;;;;;7.03;5.43;;;5.50;1.00;;;;;;5105966;28;20207;-76
2021/03/09 01:04:29;;;;;;;6.25;4.85;;;5.30;1.00;;;;;;5089017;28;20459;-76
2021/03/09 01:06:56;;;;;;;6.50;5.03;;;5.30;1.00;;;;;;5103950;28;20763;-76
2021/03/09 01:09:23;;;;;;;9.32;4.90;;;5.20;1.00;;;;;;5106075;28;20446;-75
2021/03/09 01:11:51;;;;;;;6.20;5.20;;;5.30;1.00;;;;;;5119474;28;20232;-75
2021/03/09 01:14:19;;;;;;;9.15;5.65;;;5.20;1.00;;;;;;5105177;28;20211;-76
2021/03/09 01:16:46;;;;;;;7.27;5.57;;;5.10;1.00;;;;;;5080100;28;20247;-76
2021/03/09 01:19:13;;;;;;;7.97;5.50;;;5.20;1.00;;;;;;5081031;28;20447;-77
2021/03/09 01:21:40;;;;;;;10.55;6.18;;;5.10;1.00;;;;;;5107460;28;20211;-74
2021/03/09 01:24:08;;;;;;;6.68;5.60;;;5.10;1.00;;;;;;5078380;28;20192;-77
2021/03/09 01:26:35;;;;;;;9.63;6.32;;;5.10;1.00;;;;;;5101730;28;20717;-74
2021/03/09 01:29:03;;;;;;;8.68;5.85;;;5.10;1.00;;;;;;5106381;28;20191;-75
2021/03/09 01:31:31;;;;;;;8.52;5.93;;;5.00;1.00;;;;;;5101328;28;20203;-77
2021/03/09 01:33:59;;;;;;;10.85;6.82;;;5.00;1.00;;;;;;5092540;28;20548;-76
2021/03/09 01:36:26;;;;;;;8.90;6.38;;;5.00;1.00;;;;;;5101837;28;20202;-76
2021/03/09 01:38:53;;;;;;;10.15;5.95;;;4.90;1.00;;;;;;5118383;27;20215;-74
2021/03/09 01:41:20;;;;;;;11.65;6.40;;;4.90;1.00;;;;;;5101669;28;20331;-77
2021/03/09 01:43:48;;;;;;;10.38;7.22;;;4.90;1.00;;;;;;5091413;28;20210;-76
2021/03/09 01:46:17;;;;;;;5.38;4.85;;;5.00;1.00;;;;;;5091799;28;20240;-76
2021/03/09 01:48:47;;;;;;;8.30;5.93;;;4.90;1.00;;;;;;5110149;28;20596;-78
2021/03/09 01:51:16;;;;;;;7.30;4.90;;;5.00;1.00;;;;;;5107274;28;20206;-76
2021/03/09 01:53:44;;;;;;;17.05;5.90;;;4.90;1.00;;;;;;5106667;28;20202;-74
2021/03/09 01:56:11;;;;;;;9.90;6.13;;;4.90;1.00;;;;;;5108298;28;20186;-75
2021/03/09 01:58:42;;;;;;;9.20;5.20;;;5.00;1.00;;;;;;5108193;28;20219;-75
2021/03/09 02:01:09;;;;;;;6.10;5.50;;;4.80;1.00;;;;;;5105501;28;20674;-75
2021/03/09 02:03:37;;;;;;;11.13;6.93;;;4.80;1.00;;;;;;5086364;28;20188;-75
2021/03/09 02:06:06;;;;;;;6.53;5.82;;;4.80;1.00;;;;;;5086889;28;20298;-74
2021/03/09 02:08:33;;;;;;;8.10;6.00;;;4.80;1.00;;;;;;5108137;28;21271;-75
2021/03/09 02:11:02;;;;;;;7.75;5.47;;;4.70;1.00;;;;;;5112198;28;20258;-75
2021/03/09 02:13:39;;;;;;;9.60;6.63;;;4.70;1.00;;;;;;5109666;28;20282;-76
2021/03/09 02:16:13;;;;;;;6.57;5.70;;;4.70;1.00;;;;;;5110850;28;20197;-76
2021/03/09 02:18:57;;;;;;;8.27;5.75;;;4.70;1.00;;;;;;5125708;27;20737;-75
2021/03/09 02:21:46;;;;;;;7.68;5.90;;;4.60;1.00;;;;;;5098248;28;20209;-74
2021/03/09 02:24:42;;;;;;;7.63;5.60;;;4.60;1.00;;;;;;5100153;28;20195;-75
2021/03/09 02:27:28;;;;;;;7.53;5.57;;;4.60;1.00;;;;;;5099775;28;20279;-75
2021/03/09 02:30:06;;;;;;;6.75;5.22;;;4.60;1.00;;;;;;5111443;28;20243;-75
2021/03/09 02:32:39;;;;;;;7.85;5.10;;;4.80;1.00;;;;;;5100797;28;20186;-75
2021/03/09 02:35:10;;;;;;;8.43;6.10;;;4.60;1.00;;;;;;5109190;28;20194;-77
2021/03/09 02:37:39;;;;;;;8.65;6.20;;;4.60;1.00;;;;;;5089894;28;20787;-77
2021/03/09 02:40:11;;;;;;;7.95;5.95;;;4.60;1.00;;;;;;5111398;28;20211;-76
2021/03/09 02:42:46;;;;;;;10.88;6.88;;;4.60;1.00;;;;;;5108022;28;20205;-76
2021/03/09 02:45:17;;;;;;;8.95;5.47;;;4.50;1.00;;;;;;5105488;28;20217;-76
2021/03/09 02:47:47;;;;;;;8.48;5.85;;;4.50;1.00;;;;;;5108003;28;20225;-75
2021/03/09 02:50:17;;;;;;;7.60;5.68;;;4.50;1.00;;;;;;5088804;28;20199;-75
2021/03/09 02:52:49;;;;;;;8.52;6.20;;;4.50;1.00;;;;;;5104533;28;20219;-75
2021/03/09 02:55:17;;;;;;;5.43;4.93;;;4.60;1.00;;;;;;5104280;28;20207;-76
2021/03/09 02:57:47;;;;;;;7.40;5.90;;;4.40;1.00;;;;;;5103726;28;20808;-75
2021/03/09 03:00:16;;;;;;;11.18;5.90;;;4.40;1.00;;;;;;5110083;28;20583;-79
2021/03/09 03:02:44;;;;;;;7.53;6.18;;;4.40;1.00;;;;;;5125940;27;20212;-76
2021/03/09 03:05:14;;;;;;;8.43;5.97;;;4.40;1.00;;;;;;5104550;28;20194;-77
2021/03/09 03:07:42;;;;;;;6.30;5.60;;;4.30;1.00;;;;;;5084895;28;20714;-76
2021/03/09 03:10:13;;;;;;;7.47;6.03;;;4.30;1.00;;;;;;5102304;28;20701;-76
2021/03/09 03:12:42;;;;;;;10.70;5.75;;;4.30;1.00;;;;;;5108264;28;20197;-76
2021/03/09 03:15:12;;;;;;;7.93;5.63;;;4.30;1.00;;;;;;5100189;28;20254;-76
2021/03/09 03:17:42;;;;;;;8.93;6.35;;;4.30;1.00;;;;;;5108517;28;21002;-77
2021/03/09 03:20:13;;;;;;;10.05;7.18;;;4.30;1.00;;;;;;5104699;28;20207;-76
2021/03/09 03:22:43;;;;;;;5.93;5.30;;;4.20;1.00;;;;;;5097550;28;20208;-75
2021/03/09 03:25:13;;;;;;;7.60;5.93;;;4.30;1.00;;;;;;5108660;28;20267;-73
2021/03/09 03:27:42;;;;;;;7.88;7.07;;;4.20;1.00;;;;;;5110583;28;20214;-74
2021/03/09 03:30:11;;;;;;;9.10;6.05;;;4.20;1.00;;;;;;5106283;28;20210;-75
2021/03/09 03:32:40;;;;;;;7.20;5.82;;;4.20;1.00;;;;;;5108235;28;20183;-74
2021/03/09 03:35:09;;;;;;;9.05;6.20;;;4.20;1.00;;;;;;5106551;28;20258;-75
2021/03/09 03:37:36;;;;;;;9.05;5.85;;;4.20;1.00;;;;;;5088133;28;20225;-78
2021/03/09 03:40:08;;;;;;;9.98;5.30;;;4.20;1.00;;;;;;5089245;28;20709;-75
2021/03/09 03:42:35;;;;;;;8.00;6.75;;;4.20;1.00;;;;;;5108592;28;20615;-75
2021/03/09 03:45:03;;;;;;;6.80;5.40;;;4.20;1.00;;;;;;5108509;28;20554;-76
2021/03/09 03:47:30;;;;;;;6.80;6.20;;;4.10;1.00;;;;;;5089751;28;20213;-74
2021/03/09 03:50:14;;;;;;;8.23;5.35;;;4.10;1.00;;;;;;5108303;28;20250;-74
2021/03/09 03:52:50;;;;;;;8.35;5.75;;;4.10;1.00;;;;;;5110766;28;20202;-76
2021/03/09 03:55:26;;;;;;;6.10;5.10;;;4.20;1.00;;;;;;5107061;28;20591;-74
2021/03/09 03:57:56;;;;;;;7.07;5.68;;;4.10;1.00;;;;;;5106827;28;20293;-74
2021/03/09 04:00:23;;;;;;;6.72;5.78;;;4.10;1.00;;;;;;5098734;28;20209;-76
2021/03/09 04:02:52;;;;;;;11.15;5.55;;;4.10;1.00;;;;;;5110656;28;20585;-73
2021/03/09 04:05:22;;;;;;;10.10;7.65;;;4.10;1.00;;;;;;5089332;28;20189;-75
2021/03/09 04:07:50;;;;;;;6.68;6.05;;;4.10;1.00;;;;;;5106005;28;20226;-74
2021/03/09 04:10:17;;;;;;;6.97;4.85;;;4.00;1.00;;;;;;5122680;27;20193;-74
2021/03/09 04:12:45;;;;;;;9.35;7.25;;;4.00;1.00;;;;;;5110640;28;20245;-75
2021/03/09 04:15:14;;;;;;;6.50;5.53;;;4.00;1.00;;;;;;5105628;28;20197;-75
2021/03/09 04:17:43;;;;;;;8.18;6.35;;;4.00;1.00;;;;;;5085332;28;20761;-75
2021/03/09 04:20:27;;;;;;;8.90;6.05;;;4.00;1.00;;;;;;5100986;28;20204;-76
2021/03/09 04:22:55;;;;;;;7.10;5.63;;;3.90;1.00;;;;;;5106724;28;20208;-75
2021/03/09 04:25:24;;;;;;;7.32;5.30;;;4.10;1.00;;;;;;5102925;28;20201;-76
2021/03/09 04:27:51;;;;;;;6.35;4.93;;;3.90;1.00;;;;;;5107278;28;20201;-75
2021/03/09 04:30:20;;;;;;;8.90;6.20;;;4.00;1.00;;;;;;5108486;28;20220;-76
2021/03/09 04:32:47;;;;;;;8.07;5.80;;;3.90;1.00;;;;;;5106941;28;20246;-76
2021/03/09 04:35:15;;;;;;;8.10;5.85;;;3.90;1.00;;;;;;5103110;28;20208;-75
2021/03/09 04:37:43;;;;;;;7.45;5.60;;;3.90;1.00;;;;;;5108966;28;20213;-75
2021/03/09 04:40:11;;;;;;;7.95;5.55;;;3.90;1.00;;;;;;5098003;28;20198;-75
2021/03/09 04:42:38;;;;;;;8.20;5.78;;;3.90;1.00;;;;;;5122903;28;20265;-75
2021/03/09 04:45:07;;;;;;;7.38;6.43;;;3.90;1.00;;;;;;5087675;28;20443;-77
2021/03/09 04:47:35;;;;;;;9.27;7.45;;;4.00;1.00;;;;;;5097348;28;20440;-74
2021/03/09 04:50:05;;;;;;;7.47;5.93;;;4.50;1.00;;;;;;5105579;28;20212;-76
2021/03/09 04:52:33;;;;;;;8.48;5.25;;;4.20;1.00;;;;;;5091280;28;20193;-74
2021/03/09 04:55:04;;;;;;;12.63;5.60;;;4.00;1.00;;;;;;5086327;28;20284;-76
2021/03/09 04:57:38;;;;;;;8.52;5.90;;;4.00;1.00;;;;;;5104760;28;20743;-75
2021/03/09 05:00:08;;;;;;;12.27;6.50;;;3.90;1.00;;;;;;5077474;28;20660;-74
2021/03/09 05:02:41;;;;;;;10.43;6.00;;;3.90;1.00;;;;;;5115331;28;20236;-75
2021/03/09 05:05:11;;;;;;;6.55;5.85;;;3.80;1.00;;;;;;5089918;28;20250;-76
2021/03/09 05:07:38;;;;;;;7.93;6.05;;;3.80;1.00;;;;;;5089058;28;20327;-75
2021/03/09 05:10:08;;;;;;;6.40;5.53;;;3.80;1.00;;;;;;5125922;27;20284;-77
2021/03/09 05:12:39;;;;;;;6.78;5.13;;;3.80;1.00;;;;;;5087383;28;20209;-76
2021/03/09 05:15:07;;;;;;;8.32;6.38;;;3.80;1.00;;;;;;5123399;27;20197;-76
2021/03/09 05:17:34;;;;;;;9.45;6.18;;;3.80;1.00;;;;;;5094572;28;20246;-75
2021/03/09 05:20:02;;;;;;;8.18;5.78;;;3.70;1.00;;;;;;5105970;28;20185;-76
2021/03/09 05:22:29;;;;;;;8.40;5.22;;;3.70;1.00;;;;;;5127531;27;20298;-75
2021/03/09 05:24:57;;;;;;;7.13;5.95;;;3.70;1.00;;;;;;5107535;28;20234;-74
2021/03/09 05:27:26;;;;;;;7.38;6.68;;;3.70;1.00;;;;;;5091720;28;20262;-73
2021/03/09 05:29:53;;;;;;;10.90;7.82;;;3.70;1.00;;;;;;5089824;28;20204;-77
2021/03/09 05:32:20;;;;;;;9.38;7.50;;;3.70;1.00;;;;;;5078099;28;20185;-75
2021/03/09 05:34:48;;;;;;;7.70;6.55;;;3.70;1.00;;;;;;5085457;28;20185;-74
2021/03/09 05:37:15;;;;;;;8.70;7.20;;;3.70;1.00;;;;;;5111075;28;20439;-75
2021/03/09 05:39:43;;;;;;;8.25;6.90;;;3.80;1.00;;;;;;5110699;28;20207;-75
2021/03/09 05:42:12;;;;;;;11.73;6.70;;;3.90;1.00;;;;;;5125207;27;20201;-76
2021/03/09 05:44:40;;;;;;;9.63;6.30;;;3.70;1.00;;;;;;5102537;28;20194;-74
2021/03/09 05:47:07;;;;;;;10.85;5.90;;;3.70;1.00;;;;;;5096126;28;20319;-70
2021/03/09 05:49:35;;;;;;;13.73;5.75;;;3.60;1.00;;;;;;5084750;28;20195;-74
2021/03/09 05:52:03;;;;;;;6.80;6.10;;;3.80;1.00;;;;;;5093426;28;20197;-73
2021/03/09 05:54:30;;;;;;;10.45;6.55;;;3.70;1.00;;;;;;5100178;28;20193;-75
2021/03/09 05:56:57;;;;;;;8.18;6.20;;;3.70;1.00;;;;;;5103267;28;20212;-76
2021/03/09 05:59:24;;;;;;;11.07;6.75;;;3.70;1.00;;;;;;5112553;28;20545;-74
2021/03/09 06:01:52;;;;;;;12.90;6.15;;;3.70;1.00;;;;;;5102635;28;20218;-74
2021/03/09 06:04:20;;;;;;;9.38;6.57;;;3.70;1.00;;;;;;5111609;28;20615;-74
2021/03/09 06:06:48;;;;;;;8.63;5.72;;;3.70;1.00;;;;;;5100077;28;20614;-73
2021/03/09 06:09:40;;;;;;;7.95;5.82;;;3.70;1.00;;;;;;5082599;28;20661;-75
2021/03/09 06:12:15;;;;;;;7.18;5.57;;;3.70;1.00;;;;;;5092624;28;20296;-74
2021/03/09 06:14:44;;;;;;;6.82;6.22;;;3.70;1.00;;;;;;5080337;28;20221;-73
2021/03/09 06:17:13;;;;;;;7.95;6.35;;;3.70;1.00;;;;;;5096902;28;20459;-75
2021/03/09 06:19:43;;;;;;;8.70;6.72;;;3.70;1.00;;;;;;5081262;28;20211;-76
2021/03/09 06:22:11;;;;;;;9.02;5.78;;;3.70;1.00;;;;;;5086146;28;20321;-73
2021/03/09 06:24:38;;;;;;;8.55;5.60;;;3.70;1.00;;;;;;5099803;28;20203;-74
2021/03/09 06:27:23;;;;;;;10.30;5.53;;;3.70;1.00;;;;;;5101921;28;20701;-75
2021/03/09 06:29:51;;;;;;;10.00;6.57;;;3.70;1.00;;;;;;5080742;28;20294;-75
2021/03/09 06:32:19;;;;;;;7.00;6.30;;;3.70;1.00;;;;;;5106999;27;20208;-72
2021/03/09 06:34:48;;;;;;;9.07;5.88;;;3.80;1.00;;;;;;5092169;28;20207;-73
2021/03/09 06:37:17;;;;;;;8.80;6.45;;;3.80;1.00;;;;;;5121616;27;20301;-76
2021/03/09 06:39:46;;;;;;;8.40;6.20;;;3.80;1.00;;;;;;5090091;28;20724;-73
2021/03/09 06:42:21;;;;;;;6.95;5.85;;;3.80;1.00;;;;;;5107745;28;20208;-73
2021/03/09 06:44:50;;;;;;;7.80;6.78;;;3.80;1.00;;;;;;5086854;28;20209;-73
2021/03/09 06:47:19;;;;;;;6.43;5.75;;;3.80;1.00;;;;;;5082831;28;20352;-73
2021/03/09 06:49:51;;;;;;;6.22;5.57;;;3.80;1.00;;;;;;5094305;28;20851;-73
2021/03/09 06:52:25;;;;;;;8.50;5.93;;;3.90;1.00;;;;;;5086319;28;20290;-72
2021/03/09 06:54:54;;;;;;;8.25;5.65;;;3.80;1.00;;;;;;5089275;27;20220;-74
2021/03/09 06:57:23;;;;;;;9.25;6.40;;;3.90;1.00;;;;;;5082154;28;20716;-73
2021/03/09 06:59:52;;;;;;;10.07;7.43;;;3.90;1.00;;;;;;5104637;28;20686;-73
2021/03/09 07:02:22;;;;;;;8.48;7.22;;;3.90;1.00;;;;;;5122144;27;20217;-72
2021/03/09 07:04:51;;;;;;;8.13;6.10;;;3.90;1.00;;;;;;5087910;28;20197;-73
2021/03/09 07:07:28;;;;;;;7.25;6.35;;;3.90;1.00;;;;;;5094805;28;20516;-72
2021/03/09 07:09:58;;;;;;;12.93;7.25;;;3.90;1.00;;;;;;5122697;27;20223;-72
2021/03/09 07:12:26;;;;;;;7.60;6.32;;;3.90;1.00;;;;;;5088726;28;20189;-73
2021/03/09 07:14:55;;;;;;;10.25;6.55;;;3.90;1.00;;;;;;5088093;28;20684;-71
2021/03/09 07:17:26;;;;;;;8.32;6.00;;;3.90;1.00;;;;;;5085906;28;20267;-72
2021/03/09 07:19:55;;;;;;;8.70;6.75;;;3.90;1.00;;;;;;5106051;28;20728;-71
2021/03/09 07:22:27;;;;;;;11.90;7.32;;;4.00;1.00;;;;;;5089688;28;20577;-72
2021/03/09 07:24:59;;;;;;;12.55;8.30;;;4.10;1.00;;;;;;5089871;28;20200;-71
2021/03/09 07:27:33;;;;;;;12.63;7.90;;;4.20;1.00;;;;;;5087098;28;20222;-71
2021/03/09 07:30:01;;;;;;;10.57;7.93;;;4.30;1.00;;;;;;5098111;28;20640;-71
2021/03/09 07:32:31;;;;;;;11.15;7.65;;;4.40;1.00;;;;;;5080499;28;20188;-72
2021/03/09 07:34:59;;;;;;;12.85;8.48;;;4.40;1.00;;;;;;5091069;28;20218;-72
2021/03/09 07:37:27;;;;;;;9.55;7.57;;;4.50;1.00;;;;;;5088250;28;20224;-72
2021/03/09 07:39:56;;;;;;;11.65;8.90;;;4.50;1.00;;;;;;5123278;27;20297;-71
2021/03/09 07:42:24;;;;;;;12.80;7.95;;;4.60;1.00;;;;;;5090930;28;20204;-72
2021/03/09 07:44:52;;;;;;;14.52;8.02;;;4.70;1.00;;;;;;5094802;28;20659;-72
2021/03/09 07:47:20;;;;;;;11.45;8.20;;;4.70;1.00;;;;;;5087513;28;20212;-72
2021/03/09 07:49:48;;;;;;;11.15;8.80;;;4.80;1.00;;;;;;5088813;28;20222;-72
2021/03/09 07:52:18;;;;;;;12.73;8.73;;;4.90;1.00;;;;;;5083853;27;20629;-72
2021/03/09 07:55:16;;;;;;;14.55;7.50;;;5.00;1.00;;;;;;5089058;28;20676;-73
2021/03/09 07:57:43;;;;;;;12.85;7.47;;;5.10;1.00;;;;;;5084776;28;20655;-72
2021/03/09 08:00:12;;;;;;;11.00;8.67;;;5.10;1.00;;;;;;5107506;27;20190;-72
2021/03/09 08:02:54;;;;;;;9.88;7.40;;;5.20;1.00;;;;;;5115970;27;20538;-75
2021/03/09 08:05:23;;;;;;;13.35;7.95;;;5.30;1.00;;;;;;5093206;28;20217;-70
2021/03/09 08:07:53;;;;;;;10.88;7.93;;;5.40;1.00;;;;;;5083022;28;20224;-72
2021/03/09 08:10:46;;;;;;;12.73;8.40;;;5.40;1.00;;;;;;5098157;28;20195;-70
2021/03/09 08:13:34;;;;;;;13.20;8.07;;;5.60;1.00;;;;;;5088081;28;20187;-69
2021/03/09 08:16:33;;;;;;;13.48;9.23;;;5.70;1.00;;;;;;5094890;28;20222;-71
2021/03/09 08:19:07;;;;;;;12.52;9.40;;;5.70;1.00;;;;;;5089096;28;20226;-71
2021/03/09 08:21:54;;;;;;;11.70;8.07;;;5.90;1.00;;;;;;5086841;28;20197;-71
2021/03/09 08:24:54;;;;;;;15.17;8.47;;;6.10;1.00;;;;;;5109198;27;20994;-71
2021/03/09 08:27:39;;;;;;;12.83;7.77;;;6.20;1.00;;;;;;5115505;27;20508;-71
2021/03/09 08:30:37;;;;;;;9.75;8.38;;;6.30;1.00;;;;;;5116802;27;20453;-71
2021/03/09 08:33:24;;;;;;;10.30;8.40;;;6.60;1.00;;;;;;5081971;28;20707;-71
2021/03/09 08:35:51;;;;;;;14.00;9.30;;;6.60;1.00;;;;;;5103202;28;20932;-72
2021/03/09 08:38:22;;;;;;;13.50;8.13;;;6.70;1.00;;;;;;5103077;28;20480;-71
2021/03/09 08:41:13;;;;;;;13.40;10.40;;;6.80;1.00;;;;;;5124747;27;20883;-72
2021/03/09 08:43:42;;;;;;;14.20;9.83;;;6.90;1.00;;;;;;5086471;28;20839;-71
2021/03/09 08:46:12;;;;;;;12.17;9.67;;;7.00;1.00;;;;;;5084641;28;20468;-71
2021/03/09 08:48:54;;;;;;;11.23;9.57;;;7.00;1.00;;;;;;5088379;28;20491;-71
2021/03/09 08:51:52;;;;;;;13.57;10.87;;;7.10;1.00;;;;;;5103480;28;20487;-71
2021/03/09 08:54:32;;;;;;;11.50;9.40;;;7.20;1.00;;;;;;5106495;28;20939;-71
2021/03/09 08:57:01;;;;;;;14.27;10.10;;;7.30;1.00;;;;;;5102006;28;20552;-72
2021/03/09 08:59:31;;;;;;;14.17;11.00;;;7.40;1.00;;;;;;5106733;28;21131;-71
2021/03/09 09:02:13;;;;;;;13.90;10.80;;;7.50;1.00;;;;;;5076038;28;20446;-71
2021/03/09 09:04:42;;;;;;;18.50;10.47;;;7.70;1.00;;;;;;5107445;28;20459;-71
2021/03/09 09:07:21;;;;;;;14.73;11.07;;;7.80;1.00;;;;;;5088509;28;20481;-71
2021/03/09 09:09:51;;;;;;;17.33;9.60;;;7.90;1.00;;;;;;5089494;28;20545;-71
2021/03/09 09:12:28;;;;;;;14.07;11.07;;;8.10;1.00;;;;;;5105838;28;20454;-70
2021/03/09 09:15:14;;;;;;;14.97;11.27;;;8.30;1.00;;;;;;5086080;28;20734;-70
2021/03/09 09:17:44;;;;;;;13.60;10.13;;;8.50;1.00;;;;;;5091061;28;20841;-72
2021/03/09 09:20:15;;;;;;;12.50;9.50;;;8.50;1.00;;;;;;5103657;28;20463;-72
2021/03/09 09:22:42;;;;;;;17.30;10.80;;;8.60;1.00;;;;;;5102927;28;20475;-72
2021/03/09 09:25:13;;;;;;;13.57;9.50;;;8.70;1.00;;;;;;5118198;28;20458;-71
2021/03/09 09:27:44;;;;;;;13.93;9.20;;;8.70;1.00;;;;;;5101174;28;20981;-71
2021/03/09 09:30:15;;;;;;;11.80;10.40;;;8.80;1.00;;;;;;5085987;28;20454;-71
2021/03/09 09:32:53;;;;;;;13.40;9.37;;;8.80;1.00;;;;;;5108242;28;20946;-72
2021/03/09 09:35:22;;;;;;;12.20;8.80;;;8.90;1.00;;;;;;5101367;28;20445;-75
2021/03/09 09:37:52;;;;;;;12.03;8.90;;;8.90;1.00;;;;;;5087318;28;20475;-78
2021/03/09 09:40:22;;;;;;;13.30;8.93;;;8.90;1.00;;;;;;5081636;28;20448;-71
2021/03/09 09:42:57;;;;;;;10.00;8.57;;;8.90;1.00;;;;;;5102678;28;20921;-74
2021/03/09 09:45:26;;;;;;;12.50;7.80;;;8.90;1.00;;;;;;5094941;28;20452;-75
2021/03/09 09:47:54;;;;;;;11.97;7.83;;;9.00;1.00;;;;;;5108098;28;20515;-76
2021/03/09 09:50:22;;;;;;;11.80;8.57;;;9.00;1.00;;;;;;5104299;28;20508;-76
2021/03/09 09:52:55;;;;;;;6.73;5.40;;;9.00;1.00;;;;;;5088874;28;20440;-72
2021/03/09 09:55:24;;;;;;;10.27;6.83;;;9.10;1.00;;;;;;5103405;28;20983;-73
2021/03/09 09:57:53;;;;;;;10.83;7.27;;;9.20;1.00;;;;;;5090746;28;20481;-75
2021/03/09 10:00:26;;;;;;;6.87;5.97;;;9.30;1.00;;;;;;5087760;28;20534;-76
2021/03/09 10:03:21;;;;;;;9.37;6.90;;;9.40;1.00;;;;;;5107085;28;21084;-75
2021/03/09 10:05:48;;;;;;;6.57;4.70;;;9.50;1.00;;;;;;5042537;28;20463;-75
2021/03/09 10:08:34;;;;;;;7.00;5.70;;;9.60;1.00;;;;;;5096354;28;20476;-75
2021/03/09 10:11:04;;;;;;;5.23;4.57;;;9.80;1.00;;;;;;5088186;28;20950;-76
2021/03/09 10:13:31;;;;;;;4.30;3.90;;;9.90;1.00;;;;;;5108595;27;20495;-75
2021/03/09 10:15:58;;;;;;;6.20;3.90;;;10.00;1.00;;;;;;5111363;28;20443;-75
2021/03/09 10:18:28;;;;;;;5.07;4.47;;;10.10;1.00;;;;;;5092248;28;20809;-74
2021/03/09 10:21:01;;;;;;;5.87;4.63;;;10.20;1.00;;;;;;5111146;28;20547;-76
2021/03/09 10:23:28;;;;;;;3.53;3.23;;;10.30;1.00;;;;;;5092681;28;20485;-76
2021/03/09 10:26:00;;;;;;;4.73;4.20;;;10.40;1.00;;;;;;5107057;28;20449;-73
2021/03/09 10:28:31;;;;;;;6.00;5.40;;;10.40;1.00;;;;;;5086768;28;20481;-76
2021/03/09 10:30:58;;;;;;;5.37;4.03;;;10.40;1.00;;;;;;5111970;28;20429;-77
2021/03/09 10:33:25;;;;;;;5.40;4.70;;;10.50;1.00;;;;;;5092077;28;20951;-75
2021/03/09 10:36:05;;;;;;;4.97;4.20;;;10.60;1.00;;;;;;5092787;28;21118;-74
2021/03/09 10:38:32;;;;;;;4.50;3.93;;;10.80;1.00;;;;;;5091190;28;20551;-75
2021/03/09 10:41:00;;;;;;;5.47;4.90;;;10.80;1.00;;;;;;5096718;28;20451;-75
2021/03/09 10:43:45;;;;;;;6.33;5.30;;;10.90;1.00;;;;;;5109975;28;20480;-78
2021/03/09 10:46:13;;;;;;;5.77;4.90;;;11.10;1.00;;;;;;5092369;28;20623;-77
2021/03/09 10:48:41;;;;;;;6.27;5.43;;;11.20;1.00;;;;;;5082343;28;20465;-75
2021/03/09 10:51:16;;;;;;;5.60;5.10;;;11.20;1.00;;;;;;5109548;28;20532;-78
2021/03/09 10:53:43;;;;;;;5.40;4.90;;;11.30;1.00;;;;;;5109044;28;20444;-73
2021/03/09 10:56:11;;;;;;;4.87;4.40;;;11.40;1.00;;;;;;5090318;28;20441;-76
2021/03/09 10:58:39;;;;;;;6.50;5.03;;;11.40;1.00;;;;;;5088461;28;20489;-74
2021/03/09 11:01:07;;;;;;;6.40;4.87;;;11.60;1.00;;;;;;5091350;28;20450;-76
2021/03/09 11:03:34;;;;;;;5.03;4.73;;;11.80;1.00;;;;;;5086773;28;20467;-76
2021/03/09 11:06:02;;;;;;;6.00;5.50;;;11.80;1.00;;;;;;5091264;28;20446;-71
2021/03/09 11:08:29;;;;;;;5.30;4.80;;;12.00;1.00;;;;;;5118439;27;20219;-76
2021/03/09 11:10:57;;;;;;;5.57;5.07;;;11.90;1.00;;;;;;5104994;28;20460;-76
2021/03/09 11:13:24;;;;;;;5.87;5.30;;;11.80;1.00;;;;;;5090870;28;20553;-75
2021/03/09 11:15:51;;;;;;;5.70;5.20;;;11.80;1.00;;;;;;5106260;28;20665;-76
2021/03/09 11:18:20;;;;;;;5.57;5.17;;;11.50;1.00;;;;;;5105394;28;20832;-76
2021/03/09 11:20:48;;;;;;;5.20;4.73;;;11.50;1.00;;;;;;5091850;28;20468;-77
2021/03/09 11:23:15;;;;;;;6.00;5.37;;;11.50;1.00;;;;;;5106772;28;20991;-75
2021/03/09 11:25:43;;;;;;;5.80;5.10;;;11.60;1.00;;;;;;5090378;28;20464;-75
2021/03/09 11:28:10;;;;;;;5.73;5.20;;;11.60;1.00;;;;;;5079174;28;20476;-75
2021/03/09 11:30:37;;;;;;;5.30;4.83;;;11.50;1.00;;;;;;5088491;28;20464;-76
2021/03/09 11:33:05;;;;;;;5.87;4.57;;;11.50;1.00;;;;;;5089786;28;20441;-75
2021/03/09 11:35:33;;;;;;;5.13;4.53;;;11.60;1.00;;;;;;5089896;28;20822;-77
2021/03/09 11:38:01;;;;;;;5.40;4.97;;;11.70;1.00;;;;;;5091079;28;20465;-75
2021/03/09 11:40:28;;;;;;;6.40;5.70;;;11.60;1.00;;;;;;5107196;28;20452;-74
2021/03/09 11:42:55;;;;;;;6.33;5.10;;;11.60;1.00;;;;;;5087856;28;20469;-74
2021/03/09 11:45:23;;;;;;;6.33;5.70;;;11.50;1.00;;;;;;5108288;28;20785;-77
2021/03/09 11:47:50;;;;;;;7.00;6.30;;;11.50;1.00;;;;;;5084891;28;20439;-75
2021/03/09 11:50:17;;;;;;;5.23;4.73;;;11.90;1.00;;;;;;5089698;28;20199;-76
2021/03/09 11:52:45;;;;;;;6.30;4.80;;;11.70;1.00;;;;;;5108448;28;20449;-75
2021/03/09 11:55:13;;;;;;;6.27;5.50;;;11.60;1.00;;;;;;5089725;28;20539;-75
2021/03/09 11:57:40;;;;;;;8.23;5.70;;;11.60;1.00;;;;;;5106108;28;21038;-76
2021/03/09 12:00:09;;;;;;;6.27;5.67;;;11.50;1.00;;;;;;5088380;28;20552;-76
2021/03/09 12:02:36;;;;;;;6.43;5.73;;;11.50;1.00;;;;;;5109296;27;20952;-77
2021/03/09 12:05:05;;;;;;;6.00;4.90;;;11.50;1.00;;;;;;5085950;28;20530;-76
2021/03/09 12:07:32;;;;;;;5.40;4.90;;;11.50;1.00;;;;;;5107075;28;20464;-76
2021/03/09 12:10:00;;;;;;;6.17;5.57;;;11.60;1.00;;;;;;5100736;28;20455;-75
2021/03/09 12:12:27;;;;;;;5.30;4.73;;;11.70;1.00;;;;;;5084624;28;21085;-73
2021/03/09 12:14:55;;;;;;;4.83;4.43;;;11.70;1.00;;;;;;5101070;28;20449;-72
2021/03/09 12:17:22;;;;;;;5.10;4.33;;;11.70;1.00;;;;;;5084445;28;20465;-74
2021/03/09 12:19:50;;;;;;;5.83;5.10;;;11.60;1.00;;;;;;5105516;28;20936;-74
2021/03/09 12:22:17;;;;;;;6.50;5.00;;;11.60;1.00;;;;;;5101288;28;21005;-76
2021/03/09 12:24:45;;;;;;;5.33;4.53;;;11.70;1.00;;;;;;5096550;27;20499;-72
2021/03/09 12:27:13;;;;;;;4.33;3.93;;;11.70;1.00;;;;;;5095577;28;20666;-74
2021/03/09 12:29:40;;;;;;;5.40;4.90;;;11.80;1.00;;;;;;5093653;28;20922;-75
2021/03/09 12:32:09;;;;;;;5.33;4.80;;;11.80;1.00;;;;;;5081961;28;20466;-72
2021/03/09 12:34:38;;;;;;;5.17;4.13;;;11.90;1.00;;;;;;5099870;28;20509;-73
2021/03/09 12:37:05;;;;;;;4.80;4.30;;;11.90;1.00;;;;;;5104424;28;21018;-74
2021/03/09 12:39:32;;;;;;;5.70;5.03;;;12.00;1.00;;;;;;5107261;28;20818;-72
2021/03/09 12:41:59;;;;;;;5.00;4.50;;;11.90;1.00;;;;;;5087527;28;20832;-76
2021/03/09 12:44:28;;;;;;;5.50;5.00;;;12.10;1.00;;;;;;5072081;28;20451;-73
2021/03/09 12:46:55;;;;;;;3.83;3.53;;;12.30;1.00;;;;;;5071473;28;20211;-74
2021/03/09 12:49:23;;;;;;;5.50;5.00;;;12.30;1.00;;;;;;5104457;28;20463;-73
2021/03/09 12:51:50;;;;;;;5.50;5.00;;;12.10;1.00;;;;;;5097723;28;20445;-70
2021/03/09 12:54:17;;;;;;;6.15;5.55;;;12.00;1.00;;;;;;5088271;28;20470;-72
2021/03/09 12:56:45;;;;;;;5.30;4.80;;;12.10;1.00;;;;;;5085999;28;20191;-73
2021/03/09 12:59:12;;;;;;;4.63;4.23;;;12.00;1.00;;;;;;5099811;28;20441;-73
2021/03/09 13:01:40;;;;;;;5.60;5.10;;;11.90;1.00;;;;;;5099177;28;20449;-73
2021/03/09 13:04:07;;;;;;;5.13;4.63;;;11.80;1.00;;;;;;5090925;28;20492;-74
2021/03/09 13:06:35;;;;;;;5.80;5.07;;;11.80;1.00;;;;;;5099309;28;20833;-73
2021/03/09 13:09:04;;;;;;;6.20;5.60;;;11.70;1.00;;;;;;5087855;28;20852;-73
2021/03/09 13:11:32;;;;;;;5.10;4.47;;;11.60;1.00;;;;;;5078969;28;20592;-73
2021/03/09 13:13:59;;;;;;;6.03;5.53;;;11.50;1.00;;;;;;5082436;28;20524;-73
2021/03/09 13:16:27;;;;;;;4.90;4.30;;;11.60;1.00;;;;;;5091342;28;20564;-73
2021/03/09 13:18:56;;;;;;;5.77;4.30;;;11.60;1.00;;;;;;5079937;28;20473;-71